Time;durP1;ratioP1;P1;durP2;ratioP2;P2;SDS_P1;SDS_P2;PMS_P1;PMS_P2;Temp;Humidity;BMP_temperature;BMP_pressure;BME280_temperature;BME280_humidity;BME280_pressure;Samples;Min_cycle;Max_cycle;Signal;HPM_P1;HPM_P2
2023/09/14 00:01:32;;;;;;;1.40;1.20;;;24.60;99.90;;;;;;4974305;28;20462;-57
2023/09/14 00:03:59;;;;;;;1.40;1.30;;;24.60;99.90;;;;;;4981738;28;20459;-57
2023/09/14 00:06:26;;;;;;;1.23;1.00;;;24.60;99.90;;;;;;4978218;28;20464;-56
2023/09/14 00:08:54;;;;;;;2.70;1.23;;;24.60;99.90;;;;;;4978658;28;20468;-50
2023/09/14 00:11:21;;;;;;;1.87;1.20;;;24.60;99.90;;;;;;4976564;28;20874;-57
2023/09/14 00:13:48;;;;;;;1.33;1.23;;;24.60;99.90;;;;;;4980578;28;20480;-55
2023/09/14 00:16:15;;;;;;;2.13;1.43;;;24.60;99.90;;;;;;4976330;28;20496;-52
2023/09/14 00:18:41;;;;;;;1.73;1.20;;;24.60;99.90;;;;;;4975242;28;20640;-53
2023/09/14 00:21:08;;;;;;;1.50;1.33;;;24.60;99.90;;;;;;4975545;28;20964;-56
2023/09/14 00:23:35;;;;;;;2.40;1.13;;;24.50;99.90;;;;;;4966499;28;20464;-54
2023/09/14 00:26:03;;;;;;;1.30;1.13;;;24.50;99.90;;;;;;4975221;28;20464;-51
2023/09/14 00:28:30;;;;;;;1.93;1.20;;;24.50;99.90;;;;;;4978833;28;20571;-57
2023/09/14 00:30:57;;;;;;;2.10;1.17;;;24.50;99.90;;;;;;4979379;28;20459;-55
2023/09/14 00:33:24;;;;;;;1.87;1.03;;;24.50;99.90;;;;;;4980367;28;20479;-55
2023/09/14 00:35:51;;;;;;;1.63;1.27;;;24.50;99.90;;;;;;4978858;28;20506;-55
2023/09/14 00:38:18;;;;;;;1.67;1.00;;;24.50;99.90;;;;;;4976038;28;21102;-56
2023/09/14 00:40:44;;;;;;;1.50;1.17;;;24.50;99.90;;;;;;4977938;28;20472;-55
2023/09/14 00:43:13;;;;;;;1.40;1.30;;;24.50;99.90;;;;;;4970188;28;20475;-52
2023/09/14 00:45:41;;;;;;;4.70;1.30;;;24.50;99.90;;;;;;4978109;28;20460;-55
2023/09/14 00:48:08;;;;;;;1.37;1.00;;;24.50;99.90;;;;;;4980419;28;20464;-54
2023/09/14 00:50:35;;;;;;;1.40;1.30;;;24.50;99.90;;;;;;4980313;28;20574;-50
2023/09/14 00:53:05;;;;;;;1.20;1.10;;;24.50;99.90;;;;;;4977356;28;20491;-55
2023/09/14 00:55:32;;;;;;;1.47;1.10;;;24.50;99.90;;;;;;4975263;28;20984;-56
2023/09/14 00:58:00;;;;;;;2.03;1.33;;;24.50;99.90;;;;;;4978622;28;20877;-52
2023/09/14 01:00:28;;;;;;;1.20;1.00;;;24.50;99.90;;;;;;4977441;28;20476;-57
2023/09/14 01:02:56;;;;;;;1.40;1.30;;;24.50;99.90;;;;;;4981270;28;20467;-55
2023/09/14 01:05:27;;;;;;;1.37;1.27;;;24.50;99.90;;;;;;4977769;28;20880;-52
2023/09/14 01:07:54;;;;;;;1.33;1.10;;;24.50;99.90;;;;;;4980017;28;20469;-58
2023/09/14 01:10:21;;;;;;;1.50;1.20;;;24.50;99.90;;;;;;4979489;28;20877;-56
2023/09/14 01:12:48;;;;;;;1.20;1.10;;;24.50;99.90;;;;;;4978606;28;20479;-52
2023/09/14 01:15:20;;;;;;;1.40;1.03;;;24.50;99.90;;;;;;4978074;28;20475;-53
2023/09/14 01:17:58;;;;;;;1.33;1.23;;;24.50;99.90;;;;;;4976717;28;20465;-54
2023/09/14 01:20:42;;;;;;;1.57;1.40;;;24.50;99.90;;;;;;4978817;28;20468;-52
2023/09/14 01:23:22;;;;;;;1.67;0.93;;;24.50;99.90;;;;;;4976426;28;20478;-56
2023/09/14 01:25:52;;;;;;;1.60;1.10;;;24.50;99.90;;;;;;4978914;28;20483;-55
2023/09/14 01:28:19;;;;;;;1.50;1.27;;;24.50;99.90;;;;;;4977544;28;20497;-58
2023/09/14 01:30:46;;;;;;;2.03;1.13;;;24.50;99.90;;;;;;4978969;28;20860;-52
2023/09/14 01:33:15;;;;;;;1.20;0.93;;;24.50;99.90;;;;;;4974602;28;20856;-52
2023/09/14 01:35:47;;;;;;;1.10;0.90;;;24.50;99.90;;;;;;4977395;28;20464;-49
2023/09/14 01:38:15;;;;;;;1.27;0.90;;;24.50;99.90;;;;;;4978766;28;20471;-56
2023/09/14 01:40:44;;;;;;;1.10;1.00;;;24.40;99.90;;;;;;4979248;28;20456;-54
2023/09/14 01:43:13;;;;;;;1.50;1.00;;;24.40;99.90;;;;;;4973034;28;20470;-55
2023/09/14 01:45:40;;;;;;;1.10;1.00;;;24.40;99.90;;;;;;4975657;28;20464;-49
2023/09/14 01:48:07;;;;;;;1.37;1.17;;;24.40;99.90;;;;;;4980037;28;20482;-51
2023/09/14 01:50:34;;;;;;;1.30;1.00;;;24.40;99.90;;;;;;4973505;28;20472;-49
2023/09/14 01:53:01;;;;;;;1.07;0.90;;;24.40;99.90;;;;;;4978743;28;20459;-52
2023/09/14 01:55:27;;;;;;;1.67;1.30;;;24.40;99.90;;;;;;4979520;28;20469;-54
2023/09/14 01:57:54;;;;;;;1.20;1.10;;;24.40;99.90;;;;;;4979293;28;20467;-55
2023/09/14 02:00:25;;;;;;;1.20;1.00;;;24.40;99.90;;;;;;4974824;28;20496;-55
2023/09/14 02:02:52;;;;;;;1.13;1.03;;;24.40;99.90;;;;;;4981115;28;20844;-49
2023/09/14 02:05:19;;;;;;;1.30;1.00;;;24.40;99.90;;;;;;4976254;28;20821;-56
2023/09/14 02:07:46;;;;;;;1.30;1.20;;;24.40;99.90;;;;;;4973809;28;20964;-53
2023/09/14 02:10:13;;;;;;;1.10;1.00;;;24.40;99.90;;;;;;4975004;28;20800;-57
2023/09/14 02:12:40;;;;;;;1.47;0.90;;;24.40;99.90;;;;;;4978918;28;21068;-54
2023/09/14 02:15:08;;;;;;;1.17;1.00;;;24.40;99.90;;;;;;4976131;28;21050;-52
2023/09/14 02:17:36;;;;;;;1.20;1.07;;;24.40;99.90;;;;;;4976237;28;20555;-52
2023/09/14 02:20:05;;;;;;;1.03;0.90;;;24.40;99.90;;;;;;4973315;28;20473;-51
2023/09/14 02:22:31;;;;;;;1.37;1.27;;;24.40;99.90;;;;;;4979473;28;20552;-53
2023/09/14 02:24:58;;;;;;;1.20;1.10;;;24.40;99.90;;;;;;4976832;28;20485;-53
2023/09/14 02:27:25;;;;;;;1.10;0.90;;;24.40;99.90;;;;;;4978822;28;20468;-54
2023/09/14 02:29:53;;;;;;;1.50;1.10;;;24.40;99.90;;;;;;4972320;28;20467;-53
2023/09/14 02:32:20;;;;;;;1.03;0.90;;;24.40;99.90;;;;;;4976369;28;20464;-58
2023/09/14 02:34:48;;;;;;;1.77;1.33;;;24.40;99.90;;;;;;4977043;28;20486;-57
2023/09/14 02:37:15;;;;;;;1.27;1.10;;;24.30;99.90;;;;;;4974979;28;20464;-56
2023/09/14 02:39:42;;;;;;;1.37;1.10;;;24.40;99.90;;;;;;4969814;28;21639;-51
2023/09/14 02:42:09;;;;;;;1.40;1.20;;;24.30;99.90;;;;;;4970620;28;20488;-55
2023/09/14 02:44:37;;;;;;;1.30;1.03;;;24.30;99.90;;;;;;4974275;28;20467;-54
2023/09/14 02:47:04;;;;;;;1.50;1.00;;;24.30;99.90;;;;;;4973276;28;20561;-49
2023/09/14 02:49:31;;;;;;;1.10;0.80;;;24.30;99.90;;;;;;4976198;28;20494;-50
2023/09/14 02:51:59;;;;;;;1.23;1.10;;;24.30;99.90;;;;;;4971400;28;20471;-51
2023/09/14 02:54:26;;;;;;;1.40;1.07;;;24.30;99.90;;;;;;4977691;28;20574;-54
2023/09/14 02:56:52;;;;;;;1.23;1.00;;;24.30;99.90;;;;;;4976614;28;20956;-51
2023/09/14 02:59:19;;;;;;;1.10;1.00;;;24.30;99.90;;;;;;4975425;28;20463;-52
2023/09/14 03:01:46;;;;;;;1.47;1.13;;;24.30;99.90;;;;;;4975282;28;21063;-52
2023/09/14 03:04:14;;;;;;;2.50;1.00;;;24.30;99.90;;;;;;4975099;28;20475;-52
2023/09/14 03:06:41;;;;;;;1.30;1.10;;;24.30;99.90;;;;;;4973875;28;21097;-52
2023/09/14 03:09:09;;;;;;;1.10;0.90;;;24.30;99.90;;;;;;4971919;28;20471;-53
2023/09/14 03:11:35;;;;;;;1.50;1.10;;;24.30;99.90;;;;;;4976942;28;20467;-53
2023/09/14 03:14:02;;;;;;;1.10;0.93;;;24.30;99.90;;;;;;4969179;28;20523;-50
2023/09/14 03:16:29;;;;;;;1.30;1.00;;;24.30;99.90;;;;;;4974686;28;20474;-53
2023/09/14 03:18:56;;;;;;;1.40;1.10;;;24.30;99.90;;;;;;4977945;28;20472;-51
2023/09/14 03:21:24;;;;;;;1.30;1.03;;;24.30;99.90;;;;;;4976194;28;20468;-52
2023/09/14 03:23:50;;;;;;;1.07;0.80;;;24.30;99.90;;;;;;4977659;28;20833;-54
2023/09/14 03:26:19;;;;;;;1.17;1.07;;;24.30;99.90;;;;;;4975297;28;20455;-52
2023/09/14 03:28:49;;;;;;;1.07;0.90;;;24.30;99.90;;;;;;4974888;28;20474;-49
2023/09/14 03:31:15;;;;;;;1.13;0.90;;;24.30;99.90;;;;;;4976070;28;20471;-53
2023/09/14 03:33:42;;;;;;;1.40;1.20;;;24.30;99.90;;;;;;4980635;28;20836;-49
2023/09/14 03:36:09;;;;;;;1.00;0.83;;;24.30;99.90;;;;;;4972411;28;20498;-50
2023/09/14 03:38:36;;;;;;;1.30;1.03;;;24.30;99.90;;;;;;4979545;28;20471;-53
2023/09/14 03:41:02;;;;;;;1.20;1.10;;;24.30;99.90;;;;;;4975246;28;20478;-53
2023/09/14 03:43:30;;;;;;;1.90;1.20;;;24.30;99.90;;;;;;4978272;28;20472;-56
2023/09/14 03:45:58;;;;;;;1.73;1.10;;;24.30;99.90;;;;;;4976388;28;20482;-52
2023/09/14 03:48:24;;;;;;;1.10;0.90;;;24.30;99.90;;;;;;4979231;28;20460;-56
2023/09/14 03:50:54;;;;;;;1.17;0.80;;;24.30;99.90;;;;;;4974841;28;20462;-53
2023/09/14 03:53:21;;;;;;;1.17;1.00;;;24.30;99.90;;;;;;4976707;28;20843;-50
2023/09/14 03:55:47;;;;;;;1.07;0.90;;;24.30;99.90;;;;;;4979331;28;20845;-53
2023/09/14 03:58:14;;;;;;;1.20;1.10;;;24.20;99.90;;;;;;4980193;28;20904;-51
2023/09/14 04:00:43;;;;;;;1.33;1.00;;;24.20;99.90;;;;;;4976540;28;20467;-53
2023/09/14 04:03:09;;;;;;;3.83;1.10;;;24.20;99.90;;;;;;4976514;28;20549;-52
2023/09/14 04:05:36;;;;;;;1.30;0.93;;;24.20;99.90;;;;;;4975402;28;20987;-52
2023/09/14 04:08:03;;;;;;;1.10;0.90;;;24.30;99.90;;;;;;4979319;28;20468;-57
2023/09/14 04:10:29;;;;;;;1.43;0.90;;;24.20;99.90;;;;;;4976414;28;20540;-50
2023/09/14 04:13:18;;;;;;;1.40;1.00;;;24.20;99.90;;;;;;4979458;28;20452;-51
2023/09/14 04:15:46;;;;;;;1.20;0.93;;;24.20;99.90;;;;;;4973477;28;21257;-49
2023/09/14 04:18:13;;;;;;;1.10;0.90;;;24.20;99.90;;;;;;4977999;28;20460;-50
2023/09/14 04:20:39;;;;;;;1.13;0.80;;;24.20;99.90;;;;;;4976074;28;21038;-49
2023/09/14 04:23:06;;;;;;;1.30;1.03;;;24.20;99.90;;;;;;4977857;28;20466;-53
2023/09/14 04:25:33;;;;;;;1.30;1.10;;;24.20;99.90;;;;;;4980451;28;20467;-51
2023/09/14 04:27:59;;;;;;;1.30;1.00;;;24.20;99.90;;;;;;4984208;28;20467;-57
2023/09/14 04:30:26;;;;;;;2.20;1.10;;;24.20;99.90;;;;;;4978034;28;21757;-52
2023/09/14 04:32:54;;;;;;;1.50;0.90;;;24.20;99.90;;;;;;4981166;28;20837;-52
2023/09/14 04:35:21;;;;;;;1.03;0.93;;;24.20;99.90;;;;;;4975488;28;20479;-53
2023/09/14 04:37:47;;;;;;;1.20;1.00;;;24.20;99.90;;;;;;4982172;28;20478;-55
2023/09/14 04:40:14;;;;;;;1.20;0.90;;;24.20;99.90;;;;;;4973380;28;20464;-56
2023/09/14 04:42:41;;;;;;;1.37;1.10;;;24.20;99.90;;;;;;4978709;28;20550;-51
2023/09/14 04:45:08;;;;;;;1.03;0.80;;;24.20;99.90;;;;;;4976978;28;22320;-50
2023/09/14 04:47:35;;;;;;;2.67;0.90;;;24.20;99.90;;;;;;4982866;28;20475;-53
2023/09/14 04:50:04;;;;;;;1.30;0.90;;;24.20;99.90;;;;;;4977325;28;20965;-52
2023/09/14 04:52:30;;;;;;;1.60;1.03;;;24.20;99.90;;;;;;4981262;28;20475;-56
2023/09/14 04:54:57;;;;;;;1.20;1.07;;;24.20;99.90;;;;;;4981422;28;20844;-56
2023/09/14 04:57:24;;;;;;;1.00;0.77;;;24.20;99.90;;;;;;4976042;28;20467;-52
2023/09/14 04:59:51;;;;;;;1.00;0.90;;;24.20;99.90;;;;;;4975859;28;20471;-55
2023/09/14 05:02:18;;;;;;;1.10;0.93;;;24.20;99.90;;;;;;4977297;28;20525;-51
2023/09/14 05:04:45;;;;;;;1.17;0.97;;;24.20;99.90;;;;;;4978065;28;20983;-50
2023/09/14 05:07:13;;;;;;;1.20;1.10;;;24.20;99.90;;;;;;4977436;28;20467;-49
2023/09/14 05:09:40;;;;;;;1.30;1.20;;;24.20;99.90;;;;;;4978630;28;20475;-53
2023/09/14 05:12:07;;;;;;;1.20;1.10;;;24.20;99.90;;;;;;4975909;28;20463;-54
2023/09/14 05:14:33;;;;;;;1.20;1.00;;;24.20;99.90;;;;;;4978420;28;21523;-49
2023/09/14 05:17:00;;;;;;;1.10;0.90;;;24.20;99.90;;;;;;4975991;28;20498;-52
2023/09/14 05:19:27;;;;;;;1.10;1.00;;;24.20;99.90;;;;;;4978515;28;20466;-53
2023/09/14 05:21:54;;;;;;;1.00;0.90;;;24.20;99.90;;;;;;4974885;28;20456;-49
2023/09/14 05:24:22;;;;;;;1.00;0.80;;;24.10;99.90;;;;;;4978019;28;21014;-53
2023/09/14 05:26:49;;;;;;;1.17;1.03;;;24.10;99.90;;;;;;4979342;28;20475;-53
2023/09/14 05:29:15;;;;;;;1.10;0.90;;;24.10;99.90;;;;;;4980282;28;21110;-51
2023/09/14 05:31:42;;;;;;;1.07;0.93;;;24.10;99.90;;;;;;4972836;28;20467;-50
2023/09/14 05:34:09;;;;;;;1.00;0.80;;;24.10;99.90;;;;;;4975858;28;20463;-57
2023/09/14 05:36:36;;;;;;;1.10;0.90;;;24.10;99.90;;;;;;4977210;28;20555;-56
2023/09/14 05:39:03;;;;;;;1.20;0.90;;;24.10;99.90;;;;;;4979125;28;20459;-54
2023/09/14 05:41:32;;;;;;;1.10;0.90;;;24.10;99.90;;;;;;4978949;28;20468;-53
2023/09/14 05:43:58;;;;;;;1.30;1.20;;;24.10;99.90;;;;;;4980347;28;20474;-51
2023/09/14 05:46:25;;;;;;;1.20;0.90;;;24.10;99.90;;;;;;4978278;28;21128;-52
2023/09/14 05:48:52;;;;;;;1.03;0.90;;;24.10;99.90;;;;;;4976859;28;20995;-55
2023/09/14 05:51:18;;;;;;;1.40;1.10;;;24.20;99.90;;;;;;4980193;28;20471;-49
2023/09/14 05:53:45;;;;;;;1.27;0.83;;;24.10;99.90;;;;;;4980026;28;20732;-52
2023/09/14 05:56:12;;;;;;;1.10;0.90;;;24.10;99.90;;;;;;4981003;28;20496;-53
2023/09/14 05:58:40;;;;;;;1.20;1.00;;;24.10;99.90;;;;;;4976771;28;20968;-51
2023/09/14 06:01:06;;;;;;;1.10;0.80;;;24.10;99.90;;;;;;4972080;28;21090;-53
2023/09/14 06:03:33;;;;;;;1.30;0.90;;;24.10;99.90;;;;;;4977858;28;20467;-52
2023/09/14 06:06:00;;;;;;;1.23;0.90;;;24.10;99.90;;;;;;4981131;28;20459;-52
2023/09/14 06:08:27;;;;;;;1.20;1.00;;;24.10;99.90;;;;;;4979063;28;20466;-48
2023/09/14 06:10:53;;;;;;;1.20;1.00;;;24.10;99.90;;;;;;4976839;28;20972;-51
2023/09/14 06:13:20;;;;;;;1.10;0.90;;;24.10;99.90;;;;;;4978799;28;20459;-55
2023/09/14 06:15:48;;;;;;;1.10;0.80;;;24.10;99.90;;;;;;4979796;28;20483;-49
2023/09/14 06:18:15;;;;;;;1.47;0.90;;;24.10;99.90;;;;;;4977868;28;20467;-54
2023/09/14 06:20:42;;;;;;;1.50;0.90;;;24.10;99.90;;;;;;4976892;28;20987;-50
2023/09/14 06:23:09;;;;;;;3.77;1.40;;;24.10;99.90;;;;;;4978660;28;20464;-53
2023/09/14 06:25:35;;;;;;;8.87;2.20;;;24.10;99.90;;;;;;4980514;28;20472;-54
2023/09/14 06:28:02;;;;;;;7.77;1.90;;;24.10;99.90;;;;;;4974439;28;20467;-51
2023/09/14 06:30:30;;;;;;;3.20;2.27;;;24.00;99.90;;;;;;4971540;28;20472;-49
2023/09/14 06:32:58;;;;;;;6.73;2.97;;;24.00;99.90;;;;;;4978704;28;20467;-48
2023/09/14 06:35:25;;;;;;;10.13;2.70;;;24.00;99.90;;;;;;4975260;28;20479;-52
2023/09/14 06:37:52;;;;;;;4.30;3.00;;;24.00;99.90;;;;;;4977364;28;20509;-56
2023/09/14 06:40:19;;;;;;;4.40;2.30;;;23.90;99.90;;;;;;4974392;28;20817;-50
2023/09/14 06:42:45;;;;;;;5.57;2.50;;;23.90;99.90;;;;;;4973895;28;20470;-53
2023/09/14 06:45:12;;;;;;;21.93;2.77;;;23.80;99.90;;;;;;4977827;28;20477;-48
2023/09/14 06:47:39;;;;;;;8.37;3.07;;;23.80;99.90;;;;;;4977987;28;20472;-50
2023/09/14 06:50:08;;;;;;;5.10;2.53;;;23.80;99.90;;;;;;4974235;28;20572;-49
2023/09/14 06:52:35;;;;;;;8.00;2.63;;;23.70;99.90;;;;;;4978233;28;20803;-48
2023/09/14 06:55:02;;;;;;;3.73;2.53;;;23.70;99.90;;;;;;4978554;28;20478;-50
2023/09/14 06:57:29;;;;;;;5.67;2.60;;;23.70;99.90;;;;;;4972284;28;20460;-54
2023/09/14 06:59:56;;;;;;;6.73;2.67;;;23.70;99.90;;;;;;4965990;28;20882;-52
2023/09/14 07:02:22;;;;;;;6.13;3.00;;;23.70;99.90;;;;;;4970653;28;20979;-49
2023/09/14 07:04:49;;;;;;;4.70;2.13;;;23.70;99.90;;;;;;4973581;28;20468;-53
2023/09/14 07:07:17;;;;;;;4.97;2.77;;;23.70;99.90;;;;;;4968154;28;20475;-54
2023/09/14 07:09:44;;;;;;;3.93;2.37;;;23.70;99.90;;;;;;4964614;28;20471;-49
2023/09/14 07:12:12;;;;;;;7.80;2.47;;;23.60;99.90;;;;;;4961665;28;20477;-52
2023/09/14 07:14:38;;;;;;;9.97;3.07;;;23.60;99.80;;;;;;4966075;28;20472;-50
2023/09/14 07:17:05;;;;;;;7.33;2.57;;;23.60;99.70;;;;;;4967511;28;20462;-50
2023/09/14 07:19:32;;;;;;;6.77;2.50;;;23.60;99.60;;;;;;4965723;28;24265;-48
2023/09/14 07:21:58;;;;;;;5.47;2.37;;;23.60;99.60;;;;;;4964307;28;20916;-48
2023/09/14 07:24:27;;;;;;;11.27;3.13;;;23.60;99.10;;;;;;4970815;28;21745;-48
2023/09/14 07:26:54;;;;;;;4.57;1.93;;;23.60;99.60;;;;;;4969848;28;20509;-54
2023/09/14 07:29:21;;;;;;;6.10;2.67;;;23.50;98.90;;;;;;4971793;28;20548;-53
2023/09/14 07:31:50;;;;;;;4.73;2.50;;;23.50;99.10;;;;;;4966205;28;20468;-55
2023/09/14 07:34:16;;;;;;;4.33;2.10;;;23.60;99.20;;;;;;4970261;28;20470;-49
2023/09/14 07:36:43;;;;;;;4.43;2.07;;;23.50;99.10;;;;;;4972053;28;20482;-52
2023/09/14 07:39:10;;;;;;;5.60;2.00;;;23.50;98.90;;;;;;4965632;28;20470;-56
2023/09/14 07:41:38;;;;;;;10.17;2.50;;;23.50;98.70;;;;;;4970549;28;20470;-55
2023/09/14 07:44:05;;;;;;;5.80;2.43;;;23.50;98.10;;;;;;4972907;28;20462;-52
2023/09/14 07:46:32;;;;;;;8.27;2.40;;;23.50;98.40;;;;;;4974696;28;20472;-54
2023/09/14 07:48:59;;;;;;;7.50;2.80;;;23.50;97.80;;;;;;4974558;28;20467;-56
2023/09/14 07:51:26;;;;;;;4.30;2.30;;;23.50;98.10;;;;;;4978041;28;20964;-53
2023/09/14 07:53:55;;;;;;;3.00;2.17;;;23.50;98.00;;;;;;4969913;28;20473;-52
2023/09/14 07:56:22;;;;;;;7.30;3.17;;;23.50;98.10;;;;;;4968140;28;21036;-50
2023/09/14 07:58:50;;;;;;;7.20;2.00;;;23.50;97.80;;;;;;4973906;28;20462;-58
2023/09/14 08:01:17;;;;;;;7.50;2.23;;;23.50;98.00;;;;;;4976339;28;20975;-54
2023/09/14 08:03:44;;;;;;;11.17;2.57;;;23.50;97.90;;;;;;4978655;28;20481;-47
2023/09/14 08:06:10;;;;;;;13.80;3.00;;;23.50;97.70;;;;;;4978048;28;21023;-49
2023/09/14 08:08:37;;;;;;;4.83;2.17;;;23.50;97.50;;;;;;4982114;28;21083;-49
2023/09/14 08:11:05;;;;;;;5.67;2.23;;;23.50;97.50;;;;;;4982401;28;20466;-48
2023/09/14 08:13:31;;;;;;;10.73;2.83;;;23.50;97.40;;;;;;4980639;28;20982;-51
2023/09/14 08:16:03;;;;;;;6.00;3.30;;;23.50;97.60;;;;;;4978638;28;20495;-53
2023/09/14 08:18:30;;;;;;;6.47;2.30;;;23.50;97.30;;;;;;4978067;28;20863;-51
2023/09/14 08:20:57;;;;;;;8.57;3.43;;;23.50;97.20;;;;;;4979615;28;20872;-48
2023/09/14 08:23:23;;;;;;;5.17;2.27;;;23.40;97.10;;;;;;4980398;28;20453;-49
2023/09/14 08:25:50;;;;;;;3.53;1.57;;;23.40;96.80;;;;;;4978717;28;20458;-51
2023/09/14 08:28:18;;;;;;;3.13;1.90;;;23.40;97.00;;;;;;4978370;28;20458;-52
2023/09/14 08:30:46;;;;;;;5.13;2.17;;;23.40;96.90;;;;;;4978431;28;20476;-52
2023/09/14 08:33:15;;;;;;;4.40;1.90;;;23.40;96.70;;;;;;4980419;28;20470;-49
2023/09/14 08:35:45;;;;;;;5.53;2.63;;;23.40;96.80;;;;;;4973544;28;20498;-49
2023/09/14 08:38:12;;;;;;;5.73;2.23;;;23.40;96.40;;;;;;4973056;28;20548;-47
2023/09/14 08:40:41;;;;;;;12.20;2.50;;;23.40;96.80;;;;;;4980130;28;20721;-52
2023/09/14 08:43:11;;;;;;;8.47;3.57;;;23.40;96.70;;;;;;4971749;28;20824;-52
2023/09/14 08:45:39;;;;;;;4.43;1.73;;;23.40;96.70;;;;;;4977862;28;20472;-51
2023/09/14 08:48:06;;;;;;;5.03;2.10;;;23.40;96.50;;;;;;4981547;28;20824;-52
2023/09/14 08:50:34;;;;;;;7.67;1.57;;;23.40;96.20;;;;;;4979305;28;20457;-52
2023/09/14 08:53:02;;;;;;;4.43;2.57;;;23.40;95.80;;;;;;4976042;28;20473;-51
2023/09/14 08:55:32;;;;;;;4.53;1.87;;;23.40;95.80;;;;;;4973032;28;20488;-51
2023/09/14 08:58:00;;;;;;;4.50;1.40;;;23.40;95.70;;;;;;4977880;28;20465;-52
2023/09/14 09:00:28;;;;;;;5.97;2.17;;;23.40;95.80;;;;;;4970118;28;20453;-51
2023/09/14 09:02:56;;;;;;;5.17;1.90;;;23.40;95.60;;;;;;4975354;28;20495;-51
2023/09/14 09:05:24;;;;;;;3.10;1.60;;;23.40;95.90;;;;;;4967795;28;20468;-47
2023/09/14 09:07:54;;;;;;;2.70;1.63;;;23.30;95.90;;;;;;4976925;28;20941;-54
2023/09/14 09:10:23;;;;;;;7.43;2.20;;;23.40;95.90;;;;;;4977438;28;21014;-49
2023/09/14 09:12:51;;;;;;;5.97;1.97;;;23.30;95.40;;;;;;4980261;28;20578;-52
2023/09/14 09:15:18;;;;;;;3.60;1.70;;;23.30;95.40;;;;;;4976113;28;20465;-46
2023/09/14 09:17:45;;;;;;;4.13;2.07;;;23.30;95.40;;;;;;4979305;28;20457;-51
2023/09/14 09:20:14;;;;;;;5.27;2.37;;;23.30;95.20;;;;;;4972993;28;20721;-51
2023/09/14 09:22:42;;;;;;;4.73;2.23;;;23.30;95.60;;;;;;4982366;28;20491;-50
2023/09/14 09:25:11;;;;;;;7.53;1.43;;;23.30;95.40;;;;;;4978910;28;20892;-48
2023/09/14 09:27:39;;;;;;;4.83;2.17;;;23.30;95.50;;;;;;4975478;28;20481;-51
2023/09/14 09:30:08;;;;;;;10.03;2.10;;;23.30;95.00;;;;;;4973957;28;20554;-50
2023/09/14 09:32:36;;;;;;;3.83;1.83;;;23.30;95.00;;;;;;4977693;28;20469;-51
2023/09/14 09:35:18;;;;;;;13.87;1.90;;;23.30;95.00;;;;;;4974942;28;21607;-48
2023/09/14 09:37:44;;;;;;;10.20;1.80;;;23.30;95.10;;;;;;4976975;28;20481;-49
2023/09/14 09:40:14;;;;;;;12.60;2.43;;;23.30;94.60;;;;;;4978798;28;20469;-47
2023/09/14 09:42:42;;;;;;;7.10;2.57;;;23.30;94.10;;;;;;4978685;28;20453;-50
2023/09/14 09:45:10;;;;;;;6.77;2.13;;;23.30;94.10;;;;;;4974749;28;20464;-48
2023/09/14 09:47:37;;;;;;;11.53;2.40;;;23.30;94.20;;;;;;4974995;28;20964;-47
2023/09/14 09:50:06;;;;;;;9.77;2.80;;;23.30;93.90;;;;;;4979869;28;20462;-47
2023/09/14 09:52:34;;;;;;;13.67;3.40;;;23.30;93.60;;;;;;4976093;28;20461;-51
2023/09/14 09:55:00;;;;;;;8.70;2.50;;;23.30;93.70;;;;;;4978021;28;20463;-47
2023/09/14 09:57:30;;;;;;;6.30;2.30;;;23.20;93.30;;;;;;4977026;28;21015;-50
2023/09/14 09:59:57;;;;;;;12.80;2.70;;;23.20;92.60;;;;;;4977746;28;20457;-50
2023/09/14 10:02:31;;;;;;;23.37;4.67;;;23.20;93.10;;;;;;4978569;28;20847;-48
2023/09/14 10:04:58;;;;;;;16.03;3.73;;;23.20;92.70;;;;;;4973874;28;20488;-47
2023/09/14 10:07:25;;;;;;;11.27;3.53;;;23.20;93.70;;;;;;4976401;28;20461;-51
2023/09/14 10:09:53;;;;;;;11.00;2.63;;;23.20;92.90;;;;;;4980726;28;20462;-49
2023/09/14 10:12:23;;;;;;;11.70;3.67;;;23.20;93.20;;;;;;4978500;28;20470;-50
2023/09/14 10:14:53;;;;;;;10.73;4.17;;;23.30;94.10;;;;;;4976791;28;20462;-50
2023/09/14 10:17:22;;;;;;;13.43;3.20;;;23.30;93.40;;;;;;4972819;28;20476;-49
2023/09/14 10:19:50;;;;;;;7.60;3.23;;;23.30;94.40;;;;;;4972677;28;20508;-47
2023/09/14 10:22:18;;;;;;;15.83;3.53;;;23.30;94.00;;;;;;4976326;28;20489;-46
2023/09/14 10:24:46;;;;;;;11.67;4.33;;;23.30;94.00;;;;;;4977770;28;20465;-48
2023/09/14 10:27:14;;;;;;;19.23;4.30;;;23.30;93.70;;;;;;4969377;28;20481;-47
2023/09/14 10:29:43;;;;;;;19.47;4.17;;;23.30;93.90;;;;;;4978238;28;20468;-45
2023/09/14 10:32:14;;;;;;;17.83;4.73;;;23.30;93.70;;;;;;4978129;28;20464;-47
2023/09/14 10:34:42;;;;;;;9.87;3.77;;;23.30;93.60;;;;;;4973337;28;20531;-53
2023/09/14 10:37:11;;;;;;;8.63;2.30;;;23.30;93.20;;;;;;4974709;28;20485;-46
2023/09/14 10:39:38;;;;;;;4.27;2.27;;;23.30;93.30;;;;;;4976169;28;20472;-47
2023/09/14 10:42:05;;;;;;;10.00;2.60;;;23.30;93.40;;;;;;4979480;28;20461;-47
2023/09/14 10:44:33;;;;;;;8.23;2.20;;;23.30;93.40;;;;;;4973466;28;21014;-52
2023/09/14 10:47:02;;;;;;;7.93;2.57;;;23.20;93.00;;;;;;4976182;28;20486;-49
2023/09/14 10:49:34;;;;;;;8.00;2.50;;;23.20;92.80;;;;;;4975155;28;20464;-48
2023/09/14 10:52:01;;;;;;;10.37;2.30;;;23.20;93.10;;;;;;4971613;28;20904;-51
2023/09/14 10:54:31;;;;;;;6.30;2.13;;;23.20;93.10;;;;;;4978292;28;20464;-49
2023/09/14 10:56:58;;;;;;;2.70;1.77;;;23.20;92.60;;;;;;4977017;28;20515;-46
2023/09/14 10:59:49;;;;;;;3.30;1.97;;;23.20;92.80;;;;;;4976364;28;20457;-51
2023/09/14 11:02:53;;;;;;;8.27;2.37;;;23.20;92.60;;;;;;4973800;28;20472;-52
2023/09/14 11:05:23;;;;;;;3.60;2.13;;;23.20;92.40;;;;;;4976552;28;20466;-52
2023/09/14 11:07:56;;;;;;;5.10;1.97;;;23.20;91.30;;;;;;4976700;28;20543;-54
2023/09/14 11:10:23;;;;;;;8.10;1.93;;;23.20;91.80;;;;;;4974722;28;20462;-50
2023/09/14 11:12:51;;;;;;;4.00;1.93;;;23.20;92.80;;;;;;4978665;28;20487;-49
2023/09/14 11:15:21;;;;;;;9.93;2.10;;;23.20;91.70;;;;;;4974492;28;20473;-49
2023/09/14 11:17:49;;;;;;;6.20;2.20;;;23.20;91.10;;;;;;4972872;28;21203;-49
2023/09/14 11:20:42;;;;;;;3.60;1.90;;;23.20;90.90;;;;;;4971668;28;20456;-49
2023/09/14 11:23:09;;;;;;;2.80;1.63;;;23.20;90.50;;;;;;4979021;28;20551;-47
2023/09/14 11:25:38;;;;;;;5.80;2.47;;;23.10;89.80;;;;;;4978120;28;20483;-50
2023/09/14 11:28:06;;;;;;;5.93;1.80;;;23.10;89.20;;;;;;4977823;28;20475;-47
2023/09/14 11:30:33;;;;;;;6.60;1.90;;;23.10;90.10;;;;;;4975580;28;20462;-50
2023/09/14 11:33:02;;;;;;;8.47;1.87;;;23.10;90.10;;;;;;4978258;28;20458;-49
2023/09/14 11:35:36;;;;;;;3.00;1.83;;;23.10;89.90;;;;;;4969951;28;20517;-49
2023/09/14 11:38:13;;;;;;;4.53;2.37;;;23.10;90.00;;;;;;4979065;28;20480;-53
2023/09/14 11:40:40;;;;;;;3.97;2.13;;;23.10;89.60;;;;;;4982805;28;20473;-50
2023/09/14 11:43:20;;;;;;;3.47;1.73;;;23.10;90.20;;;;;;4983237;28;20543;-51
2023/09/14 11:45:49;;;;;;;6.40;1.80;;;23.10;90.50;;;;;;4980197;28;20479;-51
2023/09/14 11:48:17;;;;;;;5.37;1.93;;;23.20;90.80;;;;;;4979750;28;20471;-49
2023/09/14 11:50:47;;;;;;;6.93;2.50;;;23.20;90.70;;;;;;4981929;28;20471;-46
2023/09/14 11:53:18;;;;;;;4.93;1.90;;;23.20;90.70;;;;;;4981539;28;20472;-48
2023/09/14 11:55:45;;;;;;;6.90;1.90;;;23.20;90.80;;;;;;4980295;28;20844;-51
2023/09/14 11:58:13;;;;;;;4.03;2.20;;;23.20;90.90;;;;;;4968783;28;20585;-49
2023/09/14 12:00:43;;;;;;;4.93;2.30;;;23.20;91.00;;;;;;4978498;28;20465;-52
2023/09/14 12:03:10;;;;;;;3.63;2.07;;;23.20;90.80;;;;;;4978851;28;20482;-49
2023/09/14 12:05:37;;;;;;;4.90;1.97;;;23.20;92.10;;;;;;4979353;28;20467;-50
2023/09/14 12:08:11;;;;;;;6.47;3.37;;;23.20;91.40;;;;;;4979665;28;20465;-52
2023/09/14 12:10:40;;;;;;;5.63;2.47;;;23.20;91.40;;;;;;4980550;28;20821;-48
2023/09/14 12:13:12;;;;;;;2.63;1.90;;;23.20;91.30;;;;;;4973880;28;20464;-51
2023/09/14 12:15:39;;;;;;;14.10;2.23;;;23.20;91.40;;;;;;4964612;28;20551;-49
2023/09/14 12:18:06;;;;;;;7.27;1.97;;;23.20;90.70;;;;;;4973650;28;20480;-51
2023/09/14 12:20:35;;;;;;;5.10;1.83;;;23.20;90.00;;;;;;4966388;28;21037;-51
2023/09/14 12:23:03;;;;;;;4.30;2.00;;;23.20;89.30;;;;;;4960074;28;20537;-56
2023/09/14 12:25:31;;;;;;;4.83;2.10;;;23.20;88.60;;;;;;4967951;28;21053;-53
2023/09/14 12:28:00;;;;;;;6.87;1.90;;;23.20;88.50;;;;;;4982016;28;20461;-54
2023/09/14 12:30:28;;;;;;;3.47;2.57;;;23.20;87.80;;;;;;4980421;28;20530;-55
2023/09/14 12:32:55;;;;;;;4.43;2.13;;;23.20;88.40;;;;;;4978966;28;20472;-53
2023/09/14 12:35:23;;;;;;;3.03;2.00;;;23.20;89.70;;;;;;4972326;28;20470;-50
2023/09/14 12:37:51;;;;;;;3.57;2.20;;;23.20;88.80;;;;;;4975474;28;20503;-53
2023/09/14 12:40:19;;;;;;;4.20;2.30;;;23.20;88.00;;;;;;4972880;28;20462;-54
2023/09/14 12:42:45;;;;;;;3.27;2.10;;;23.20;85.80;;;;;;4976724;28;20930;-51
2023/09/14 12:45:16;;;;;;;5.20;2.33;;;23.20;85.70;;;;;;4977694;28;20820;-55
2023/09/14 12:47:45;;;;;;;3.83;2.07;;;23.20;85.70;;;;;;4978035;28;20473;-51
2023/09/14 12:50:16;;;;;;;5.57;2.13;;;23.20;85.90;;;;;;4976833;28;20462;-56